Ranchester, WY (82839)

3:32 AM MDT on October 26, 2014 (GMT -0600)
KWYSHERI2 | Change Station
CLOSE
Current Station
Personal Weather Station
Location: Sheridan, WY
Elevation: 3828 ft
Nearby Weather Stations

Elev 3828 ft 44.81 °N, 106.98 °W | Updated 31 seconds ago

Clear
Clear
49.5 °F
Feels Like 50 °F
N
0.0
Wind Variable Wind from South
Gusts 0.0 mph

Today
High -- | Low -- °F
--% Chance of Precip.
Yesterday
High -- | Low -- °F
Precip. -- in
7:38 AM 6:05 PM
Waxing Crescent, 7% visible
Pressure 29.57 in
Visibility 10.0 miles
Clouds Clear
Windchill 50 °F
Dew Point 28 °F
Humidity 43%
Rainfall 0.00 in
Snow Depth Not available.
UV 0 out of 12
Pollen 1.70 out of 12
Air Quality Not available.
Flu Activity Sporadic
METAR KSHR 260853Z AUTO 00000KT 10SM CLR 09/M02 A2964 RMK AO2 SLP014 T00941017 56012 TSNO

More Conditions Fewer Conditions

Pressure 29.57 in
Visibility 10.0 miles
Clouds Clear
Windchill 50 °F
Dew Point 28 °F
Humidity 43%
Rainfall 0.00 in
Snow Depth Not available.
UV 0 out of 12
Pollen 1.70 out of 12
Air Quality Not available.
Flu Activity Sporadic
METAR KSHR 260853Z AUTO 00000KT 10SM CLR 09/M02 A2964 RMK AO2 SLP014 T00941017 56012 TSNO

More Conditions Fewer Conditions

10-Day Weather Forecast

Almanac

Astronomy

Oct. 26, 2014 Rise Set
Actual Time 7:38 AM MDT 6:05 PM MDT
Civil Twilight 7:08 AM MDT 6:35 PM MDT
Nautical Twilight 6:34 AM MDT 7:09 PM MDT
Astronomical Twilight 6:00 AM MDT 7:43 PM MDT
Moon 10:24 AM MDT 8:14 PM MDT
Length of Visible Light 11h 27m
Length of Day
10h 26m
Tomorrow will be 2m 53s shorter.
Waxing Crescent, 7% of the Moon is Illuminated
Today
Waxing Crescent
Oct 30
First Quarter
Nov 6
Full
Nov 14
Last Quarter
Nov 22
New

Today's Extremes

State Highs State Lows

Community

WunderPhotos

Upload Photos

1,765,130 photos uploaded!

Nearby

Snow Depth

Station Depth Elevation
Burgess Junction 1 in 7880 ft
Big Goose 0 in 7990 ft
Dome Lake 0 in 8880 ft
Bone Springs Divide 1 in 9350 ft
Bald Mountain 1 in 9380 ft

Earthquake Activity

City Distance Mag. Time & Date
No recent earthquake activity has been reported nearby.
Minimum magnitude displayed is 2.5.

Coastal Water Temperatures

Place Temperature
No Stations Reporting

Nearby Weather Stations